sensor_id;sensor_type;location;lat;lon;timestamp;P1;durP1;ratioP1;P2;durP2;ratioP2
76846;SDS011;65813;49.546;8.644;2023-03-20T05:17:55;8.50;;;4.60;;
76846;SDS011;65813;49.546;8.644;2023-03-20T05:21:56;8.02;;;4.32;;
76846;SDS011;65813;49.546;8.644;2023-03-20T05:25:57;8.38;;;4.00;;
76846;SDS011;65813;49.546;8.644;2023-03-20T05:29:57;6.00;;;3.67;;
76846;SDS011;65813;49.546;8.644;2023-03-20T05:33:57;7.47;;;4.97;;
76846;SDS011;65813;49.546;8.644;2023-03-20T05:37:58;7.25;;;3.90;;
76846;SDS011;65813;49.546;8.644;2023-03-20T05:41:58;8.93;;;4.87;;
76846;SDS011;65813;49.546;8.644;2023-03-20T05:45:58;9.00;;;5.10;;
76846;SDS011;65813;49.546;8.644;2023-03-20T05:49:59;8.27;;;5.07;;
76846;SDS011;65813;49.546;8.644;2023-03-20T05:54:00;9.07;;;5.32;;
76846;SDS011;65813;49.546;8.644;2023-03-20T05:58:00;6.65;;;3.67;;
76846;SDS011;65813;49.546;8.644;2023-03-20T06:02:01;8.13;;;4.70;;
76846;SDS011;65813;49.546;8.644;2023-03-20T06:06:01;8.03;;;4.80;;
76846;SDS011;65813;49.546;8.644;2023-03-20T06:10:02;10.20;;;4.88;;
76846;SDS011;65813;49.546;8.644;2023-03-20T06:14:03;9.13;;;5.05;;
76846;SDS011;65813;49.546;8.644;2023-03-20T06:18:03;8.67;;;4.90;;
76846;SDS011;65813;49.546;8.644;2023-03-20T06:22:04;10.25;;;5.63;;
76846;SDS011;65813;49.546;8.644;2023-03-20T06:26:04;7.60;;;4.45;;
76846;SDS011;65813;49.546;8.644;2023-03-20T06:30:05;8.23;;;4.55;;
76846;SDS011;65813;49.546;8.644;2023-03-20T06:34:06;8.48;;;5.05;;
76846;SDS011;65813;49.546;8.644;2023-03-20T06:38:07;9.32;;;5.13;;
76846;SDS011;65813;49.546;8.644;2023-03-20T06:42:07;10.00;;;5.30;;
76846;SDS011;65813;49.546;8.644;2023-03-20T06:46:08;9.67;;;5.47;;
76846;SDS011;65813;49.546;8.644;2023-03-20T06:50:08;14.90;;;11.23;;
76846;SDS011;65813;49.546;8.644;2023-03-20T06:54:09;10.35;;;6.50;;
76846;SDS011;65813;49.546;8.644;2023-03-20T06:58:10;8.60;;;5.30;;
76846;SDS011;65813;49.546;8.644;2023-03-20T07:02:13;10.45;;;5.95;;
76846;SDS011;65813;49.546;8.644;2023-03-20T07:06:13;10.70;;;5.97;;
76846;SDS011;65813;49.546;8.644;2023-03-20T07:10:14;9.95;;;5.05;;
76846;SDS011;65813;49.546;8.644;2023-03-20T07:14:15;9.77;;;5.78;;
76846;SDS011;65813;49.546;8.644;2023-03-20T07:18:15;12.40;;;5.82;;
76846;SDS011;65813;49.546;8.644;2023-03-20T07:22:20;9.27;;;4.97;;
76846;SDS011;65813;49.546;8.644;2023-03-20T07:26:23;10.02;;;6.18;;
76846;SDS011;65813;49.546;8.644;2023-03-20T07:30:23;11.40;;;6.38;;
76846;SDS011;65813;49.546;8.644;2023-03-20T07:34:24;12.07;;;6.63;;
76846;SDS011;65813;49.546;8.644;2023-03-20T07:38:24;12.70;;;7.90;;
76846;SDS011;65813;49.546;8.644;2023-03-20T07:42:25;14.98;;;8.98;;
76846;SDS011;65813;49.546;8.644;2023-03-20T07:46:25;10.32;;;6.25;;
76846;SDS011;65813;49.546;8.644;2023-03-20T07:50:26;13.43;;;7.97;;
76846;SDS011;65813;49.546;8.644;2023-03-20T07:54:26;13.27;;;7.90;;
76846;SDS011;65813;49.546;8.644;2023-03-20T07:58:27;12.98;;;8.07;;
76846;SDS011;65813;49.546;8.644;2023-03-20T08:02:27;14.00;;;7.67;;
76846;SDS011;65813;49.546;8.644;2023-03-20T08:06:28;12.75;;;7.40;;
76846;SDS011;65813;49.546;8.644;2023-03-20T08:10:28;12.00;;;7.27;;
76846;SDS011;65813;49.546;8.644;2023-03-20T08:14:28;13.93;;;9.03;;
76846;SDS011;65813;49.546;8.644;2023-03-20T08:18:29;16.70;;;10.03;;
76846;SDS011;65813;49.546;8.644;2023-03-20T08:22:29;14.52;;;9.27;;
76846;SDS011;65813;49.546;8.644;2023-03-20T08:26:29;20.70;;;11.23;;
76846;SDS011;65813;49.546;8.644;2023-03-20T08:30:30;14.57;;;7.57;;
76846;SDS011;65813;49.546;8.644;2023-03-20T08:34:30;14.90;;;7.82;;
76846;SDS011;65813;49.546;8.644;2023-03-20T08:38:32;16.58;;;8.77;;
76846;SDS011;65813;49.546;8.644;2023-03-20T08:42:32;12.88;;;8.02;;
76846;SDS011;65813;49.546;8.644;2023-03-20T08:46:33;17.25;;;7.75;;
76846;SDS011;65813;49.546;8.644;2023-03-20T08:50:33;12.82;;;7.55;;
76846;SDS011;65813;49.546;8.644;2023-03-20T08:54:34;15.13;;;8.93;;
76846;SDS011;65813;49.546;8.644;2023-03-20T08:58:34;12.57;;;7.22;;
76846;SDS011;65813;49.546;8.644;2023-03-20T09:02:34;14.80;;;8.10;;
76846;SDS011;65813;49.546;8.644;2023-03-20T09:06:35;14.93;;;7.00;;
76846;SDS011;65813;49.546;8.644;2023-03-20T09:10:36;11.98;;;6.25;;
76846;SDS011;65813;49.546;8.644;2023-03-20T09:14:37;14.43;;;7.45;;
76846;SDS011;65813;49.546;8.644;2023-03-20T09:18:37;14.03;;;7.77;;
76846;SDS011;65813;49.546;8.644;2023-03-20T09:22:38;16.53;;;6.60;;
76846;SDS011;65813;49.546;8.644;2023-03-20T09:26:40;22.85;;;11.85;;
76846;SDS011;65813;49.546;8.644;2023-03-20T09:30:40;17.53;;;8.27;;
76846;SDS011;65813;49.546;8.644;2023-03-20T09:34:42;16.38;;;7.13;;
76846;SDS011;65813;49.546;8.644;2023-03-20T09:38:42;20.60;;;7.83;;
76846;SDS011;65813;49.546;8.644;2023-03-20T09:47:30;17.65;;;7.97;;
76846;SDS011;65813;49.546;8.644;2023-03-20T09:51:36;19.08;;;7.90;;
76846;SDS011;65813;49.546;8.644;2023-03-20T09:55:41;18.65;;;8.90;;
76846;SDS011;65813;49.546;8.644;2023-03-20T09:59:43;19.05;;;8.23;;
76846;SDS011;65813;49.546;8.644;2023-03-20T10:08:00;17.40;;;8.73;;
76846;SDS011;65813;49.546;8.644;2023-03-20T10:16:30;14.75;;;7.20;;
76846;SDS011;65813;49.546;8.644;2023-03-20T10:30:11;14.85;;;7.10;;
76846;SDS011;65813;49.546;8.644;2023-03-20T10:42:36;15.77;;;7.85;;
76846;SDS011;65813;49.546;8.644;2023-03-20T10:46:42;15.55;;;7.07;;
76846;SDS011;65813;49.546;8.644;2023-03-20T10:50:51;14.73;;;7.57;;
76846;SDS011;65813;49.546;8.644;2023-03-20T10:54:55;16.00;;;8.38;;
76846;SDS011;65813;49.546;8.644;2023-03-20T10:59:03;17.52;;;8.43;;
76846;SDS011;65813;49.546;8.644;2023-03-20T11:03:15;16.67;;;7.63;;
76846;SDS011;65813;49.546;8.644;2023-03-20T11:11:36;11.70;;;5.50;;
76846;SDS011;65813;49.546;8.644;2023-03-20T11:15:43;11.85;;;5.55;;
76846;SDS011;65813;49.546;8.644;2023-03-20T11:19:43;13.98;;;6.72;;
76846;SDS011;65813;49.546;8.644;2023-03-20T11:23:43;14.77;;;6.43;;
76846;SDS011;65813;49.546;8.644;2023-03-20T11:27:44;12.35;;;6.00;;
76846;SDS011;65813;49.546;8.644;2023-03-20T11:31:45;12.13;;;5.73;;
76846;SDS011;65813;49.546;8.644;2023-03-20T11:35:45;12.10;;;6.65;;
76846;SDS011;65813;49.546;8.644;2023-03-20T11:44:26;13.10;;;5.80;;
76846;SDS011;65813;49.546;8.644;2023-03-20T11:48:41;11.18;;;5.30;;
76846;SDS011;65813;49.546;8.644;2023-03-20T11:52:44;10.30;;;5.53;;
76846;SDS011;65813;49.546;8.644;2023-03-20T11:56:56;9.97;;;4.97;;
76846;SDS011;65813;49.546;8.644;2023-03-20T12:00:58;11.88;;;5.30;;
76846;SDS011;65813;49.546;8.644;2023-03-20T12:05:00;10.57;;;5.10;;
76846;SDS011;65813;49.546;8.644;2023-03-20T12:09:02;9.63;;;4.60;;
76846;SDS011;65813;49.546;8.644;2023-03-20T12:21:44;10.43;;;4.90;;
76846;SDS011;65813;49.546;8.644;2023-03-20T12:30:13;10.70;;;4.47;;
76846;SDS011;65813;49.546;8.644;2023-03-20T12:34:31;8.38;;;4.53;;
76846;SDS011;65813;49.546;8.644;2023-03-20T12:38:45;9.70;;;4.40;;
76846;SDS011;65813;49.546;8.644;2023-03-20T12:42:56;10.65;;;4.88;;
76846;SDS011;65813;49.546;8.644;2023-03-20T12:55:28;8.65;;;3.75;;
76846;SDS011;65813;49.546;8.644;2023-03-20T13:00:00;7.63;;;3.20;;
76846;SDS011;65813;49.546;8.644;2023-03-20T13:08:38;6.13;;;2.80;;
76846;SDS011;65813;49.546;8.644;2023-03-20T13:17:29;7.00;;;3.10;;
76846;SDS011;65813;49.546;8.644;2023-03-20T13:30:39;6.55;;;2.60;;
76846;SDS011;65813;49.546;8.644;2023-03-20T13:39:18;5.35;;;2.60;;
76846;SDS011;65813;49.546;8.644;2023-03-20T13:43:42;5.88;;;2.47;;
76846;SDS011;65813;49.546;8.644;2023-03-20T13:47:47;5.35;;;2.65;;
76846;SDS011;65813;49.546;8.644;2023-03-20T13:52:01;7.20;;;2.40;;
76846;SDS011;65813;49.546;8.644;2023-03-20T13:56:44;4.75;;;2.17;;
76846;SDS011;65813;49.546;8.644;2023-03-20T14:05:10;6.70;;;3.00;;
76846;SDS011;65813;49.546;8.644;2023-03-20T14:09:50;4.75;;;2.50;;
76846;SDS011;65813;49.546;8.644;2023-03-20T14:13:43;5.85;;;2.50;;
76846;SDS011;65813;49.546;8.644;2023-03-20T14:17:47;5.38;;;2.40;;
76846;SDS011;65813;49.546;8.644;2023-03-20T14:21:50;5.78;;;2.33;;
76846;SDS011;65813;49.546;8.644;2023-03-20T14:25:53;4.68;;;2.03;;
76846;SDS011;65813;49.546;8.644;2023-03-20T14:29:55;3.30;;;1.88;;
76846;SDS011;65813;49.546;8.644;2023-03-20T14:34:00;3.22;;;1.60;;
76846;SDS011;65813;49.546;8.644;2023-03-20T14:47:38;3.45;;;1.40;;
76846;SDS011;65813;49.546;8.644;2023-03-20T14:51:40;3.50;;;1.40;;
76846;SDS011;65813;49.546;8.644;2023-03-20T14:59:48;4.25;;;1.52;;
76846;SDS011;65813;49.546;8.644;2023-03-20T15:03:59;3.50;;;1.60;;
76846;SDS011;65813;49.546;8.644;2023-03-20T15:12:29;5.47;;;1.77;;
76846;SDS011;65813;49.546;8.644;2023-03-20T15:16:34;2.88;;;1.48;;
76846;SDS011;65813;49.546;8.644;2023-03-20T15:20:36;2.70;;;1.38;;
76846;SDS011;65813;49.546;8.644;2023-03-20T15:24:36;3.23;;;1.50;;
76846;SDS011;65813;49.546;8.644;2023-03-20T15:28:37;3.27;;;1.60;;
76846;SDS011;65813;49.546;8.644;2023-03-20T15:32:37;4.20;;;1.85;;
76846;SDS011;65813;49.546;8.644;2023-03-20T15:36:39;3.13;;;1.60;;
76846;SDS011;65813;49.546;8.644;2023-03-20T15:40:40;3.92;;;1.58;;
76846;SDS011;65813;49.546;8.644;2023-03-20T15:44:41;3.03;;;1.40;;
76846;SDS011;65813;49.546;8.644;2023-03-20T15:48:47;2.90;;;1.35;;
76846;SDS011;65813;49.546;8.644;2023-03-20T15:52:48;3.65;;;1.50;;
76846;SDS011;65813;49.546;8.644;2023-03-20T15:56:54;3.30;;;1.30;;
76846;SDS011;65813;49.546;8.644;2023-03-20T16:00:56;2.78;;;1.23;;
76846;SDS011;65813;49.546;8.644;2023-03-20T16:04:58;2.90;;;1.25;;
76846;SDS011;65813;49.546;8.644;2023-03-20T16:09:05;4.15;;;1.33;;
76846;SDS011;65813;49.546;8.644;2023-03-20T16:13:06;3.50;;;1.27;;
76846;SDS011;65813;49.546;8.644;2023-03-20T16:17:12;2.42;;;1.10;;
76846;SDS011;65813;49.546;8.644;2023-03-20T16:25:17;3.40;;;1.38;;
76846;SDS011;65813;49.546;8.644;2023-03-20T16:29:18;3.28;;;1.15;;
76846;SDS011;65813;49.546;8.644;2023-03-20T16:33:20;3.45;;;1.65;;
76846;SDS011;65813;49.546;8.644;2023-03-20T16:41:30;3.22;;;1.20;;
76846;SDS011;65813;49.546;8.644;2023-03-20T16:45:35;5.20;;;1.48;;
76846;SDS011;65813;49.546;8.644;2023-03-20T16:53:55;4.07;;;1.60;;
76846;SDS011;65813;49.546;8.644;2023-03-20T16:57:58;3.47;;;1.45;;
76846;SDS011;65813;49.546;8.644;2023-03-20T17:02:02;4.10;;;1.40;;
76846;SDS011;65813;49.546;8.644;2023-03-20T17:10:19;3.90;;;1.33;;
76846;SDS011;65813;49.546;8.644;2023-03-20T17:14:20;3.58;;;1.38;;
76846;SDS011;65813;49.546;8.644;2023-03-20T17:18:21;4.93;;;1.37;;
76846;SDS011;65813;49.546;8.644;2023-03-20T17:22:22;3.78;;;1.08;;
76846;SDS011;65813;49.546;8.644;2023-03-20T17:26:24;4.78;;;1.83;;
76846;SDS011;65813;49.546;8.644;2023-03-20T17:30:24;4.80;;;1.50;;
76846;SDS011;65813;49.546;8.644;2023-03-20T17:34:25;3.90;;;1.50;;
76846;SDS011;65813;49.546;8.644;2023-03-20T17:38:25;3.70;;;1.50;;
76846;SDS011;65813;49.546;8.644;2023-03-20T17:42:26;6.28;;;1.70;;
76846;SDS011;65813;49.546;8.644;2023-03-20T17:46:30;7.38;;;2.67;;
76846;SDS011;65813;49.546;8.644;2023-03-20T17:50:30;5.10;;;2.17;;
76846;SDS011;65813;49.546;8.644;2023-03-20T17:54:31;8.23;;;4.60;;
76846;SDS011;65813;49.546;8.644;2023-03-20T17:58:31;18.57;;;10.10;;
76846;SDS011;65813;49.546;8.644;2023-03-20T18:02:31;12.63;;;6.00;;
76846;SDS011;65813;49.546;8.644;2023-03-20T18:06:32;6.03;;;2.60;;
76846;SDS011;65813;49.546;8.644;2023-03-20T18:10:32;5.22;;;2.60;;
76846;SDS011;65813;49.546;8.644;2023-03-20T18:14:34;4.00;;;1.85;;
76846;SDS011;65813;49.546;8.644;2023-03-20T18:18:34;6.87;;;3.30;;
76846;SDS011;65813;49.546;8.644;2023-03-20T18:22:34;12.23;;;5.87;;
76846;SDS011;65813;49.546;8.644;2023-03-20T18:26:35;8.07;;;3.60;;
76846;SDS011;65813;49.546;8.644;2023-03-20T18:30:36;6.20;;;2.80;;
76846;SDS011;65813;49.546;8.644;2023-03-20T18:34:37;7.05;;;2.42;;
76846;SDS011;65813;49.546;8.644;2023-03-20T18:38:40;8.85;;;3.15;;
76846;SDS011;65813;49.546;8.644;2023-03-20T18:42:40;6.00;;;2.38;;
76846;SDS011;65813;49.546;8.644;2023-03-20T18:46:41;5.67;;;2.53;;
76846;SDS011;65813;49.546;8.644;2023-03-20T18:50:41;7.72;;;3.15;;
76846;SDS011;65813;49.546;8.644;2023-03-20T18:54:42;5.88;;;3.00;;
76846;SDS011;65813;49.546;8.644;2023-03-20T18:58:42;5.23;;;2.80;;
76846;SDS011;65813;49.546;8.644;2023-03-20T19:02:43;6.90;;;3.67;;
76846;SDS011;65813;49.546;8.644;2023-03-20T19:06:44;7.20;;;2.80;;
76846;SDS011;65813;49.546;8.644;2023-03-20T19:10:44;7.85;;;3.13;;
76846;SDS011;65813;49.546;8.644;2023-03-20T19:14:45;6.05;;;2.75;;
76846;SDS011;65813;49.546;8.644;2023-03-20T19:18:46;11.87;;;5.20;;
76846;SDS011;65813;49.546;8.644;2023-03-20T19:22:48;10.07;;;3.58;;
76846;SDS011;65813;49.546;8.644;2023-03-20T19:26:49;5.73;;;2.43;;
76846;SDS011;65813;49.546;8.644;2023-03-20T19:30:50;5.45;;;2.70;;
76846;SDS011;65813;49.546;8.644;2023-03-20T19:38:55;7.07;;;3.17;;
76846;SDS011;65813;49.546;8.644;2023-03-20T19:42:57;6.45;;;3.00;;
76846;SDS011;65813;49.546;8.644;2023-03-20T19:46:59;6.72;;;3.15;;
76846;SDS011;65813;49.546;8.644;2023-03-20T19:51:00;7.25;;;3.67;;
76846;SDS011;65813;49.546;8.644;2023-03-20T19:55:00;5.60;;;2.63;;
76846;SDS011;65813;49.546;8.644;2023-03-20T19:59:00;5.87;;;2.90;;
76846;SDS011;65813;49.546;8.644;2023-03-20T20:03:01;7.13;;;3.20;;
76846;SDS011;65813;49.546;8.644;2023-03-20T20:07:03;6.25;;;2.60;;
76846;SDS011;65813;49.546;8.644;2023-03-20T20:11:04;4.55;;;2.45;;
76846;SDS011;65813;49.546;8.644;2023-03-20T20:15:08;7.20;;;2.80;;
76846;SDS011;65813;49.546;8.644;2023-03-20T20:19:10;6.32;;;2.72;;
76846;SDS011;65813;49.546;8.644;2023-03-20T20:23:11;5.57;;;2.35;;
76846;SDS011;65813;49.546;8.644;2023-03-20T20:27:13;5.80;;;2.88;;
76846;SDS011;65813;49.546;8.644;2023-03-20T20:31:13;6.60;;;2.97;;
76846;SDS011;65813;49.546;8.644;2023-03-20T20:35:14;7.47;;;3.10;;
76846;SDS011;65813;49.546;8.644;2023-03-20T20:39:14;6.28;;;3.03;;
76846;SDS011;65813;49.546;8.644;2023-03-20T20:43:15;6.63;;;2.88;;
76846;SDS011;65813;49.546;8.644;2023-03-20T20:47:15;6.33;;;2.60;;
76846;SDS011;65813;49.546;8.644;2023-03-20T20:51:16;5.97;;;2.13;;
76846;SDS011;65813;49.546;8.644;2023-03-20T20:55:18;5.68;;;2.50;;
76846;SDS011;65813;49.546;8.644;2023-03-20T20:59:19;4.75;;;2.20;;
76846;SDS011;65813;49.546;8.644;2023-03-20T21:03:20;5.60;;;2.35;;
76846;SDS011;65813;49.546;8.644;2023-03-20T21:07:21;5.43;;;2.33;;
76846;SDS011;65813;49.546;8.644;2023-03-20T21:11:22;4.03;;;2.25;;
76846;SDS011;65813;49.546;8.644;2023-03-20T21:15:23;6.68;;;2.40;;
76846;SDS011;65813;49.546;8.644;2023-03-20T21:19:24;5.10;;;2.13;;
76846;SDS011;65813;49.546;8.644;2023-03-20T21:23:24;6.30;;;2.10;;
76846;SDS011;65813;49.546;8.644;2023-03-20T21:27:24;5.18;;;2.08;;
76846;SDS011;65813;49.546;8.644;2023-03-20T21:31:25;4.93;;;2.10;;
76846;SDS011;65813;49.546;8.644;2023-03-20T21:35:26;5.65;;;2.80;;
76846;SDS011;65813;49.546;8.644;2023-03-20T21:39:26;6.55;;;2.33;;
76846;SDS011;65813;49.546;8.644;2023-03-20T21:43:27;4.80;;;2.40;;
76846;SDS011;65813;49.546;8.644;2023-03-20T21:47:27;5.70;;;2.80;;
76846;SDS011;65813;49.546;8.644;2023-03-20T21:51:28;5.20;;;2.63;;
76846;SDS011;65813;49.546;8.644;2023-03-20T21:55:28;9.38;;;4.03;;
76846;SDS011;65813;49.546;8.644;2023-03-20T21:59:28;7.87;;;2.97;;
76846;SDS011;65813;49.546;8.644;2023-03-20T22:03:29;6.18;;;2.70;;
76846;SDS011;65813;49.546;8.644;2023-03-20T22:07:30;7.35;;;3.20;;
76846;SDS011;65813;49.546;8.644;2023-03-20T22:11:30;5.73;;;2.37;;
